Justin Morris

Recruteur en chef - Real Salt Lake
21 Oct 2027
Jeudi
Processus

Personnalité

Adaptabilité (4) Ambition (15) Controverse (19) Loyauté (16) Pression (6) Professionnalisme (9) Sportivité (16) Tempérament (8)

Profil

Style d'entraînement Démocratique
Diplôme Continental B
Détermination 8
Gestion des joueurs 6
Motivation 4
Discipline 9
Satisfaction professionnelle
95%
Fatigue
0%
Rôle Recruteur en chef
Salaire 52.7K p/s
Contrat 14.03.2029

Performance

Comportement Bon
Efficacité de l'entraînement
32%
Développement des joueurs
50%
Prévention des blessures
30%
Mise en place tactique
55%

Événements récents

A participé à une réunion de recrutement maintenant
A recommandé une cible de transfert maintenant
A recommandé une cible de transfert maintenant
A recommandé une cible de transfert maintenant
A recommandé une cible de transfert 7j
A recommandé une cible de transfert 7j
A recommandé une cible de transfert 7j
A recommandé une cible de transfert 7j

Suivi en cours

137
Joueur Club Statut Capacité Confiance Observé Dernière observation Dernier vote
Taher Mohamed Real Salt Lake Actif 119 / 119 67% 1 02.08.2027 Approuver
Bradley Phiri LNZ Actif 112 / 112 66% 1 08.07.2027 Approuver
Daniel Karlsbakk Sarpsborg 08 Perdu 124 / 126 66% 1 08.07.2027 Approuver
Razvan Mitrita San Diego Football Club Actif 118 / 120 66% 1 08.07.2027 Approuver
Davide Bartesaghi AC Milan Actif 142 / 136 40% 4 07.07.2027 -
Gonçalo Oliveira Benfica Actif 120 / 106 40% 3 07.07.2027 -
Dylan Lawlor Cardiff City Actif 109 / 111 40% 1 07.07.2027 -
Rivaldo Grobler Free State Stars Actif 106 / 98 40% 3 05.07.2027 -
Christ Inao Oulaï Fiorentina Actif 145 / 138 40% 7 05.07.2027 -
Felix Afful Liberty Professionals Actif 76 / 97 40% 2 04.07.2027 -
Tiago Freitas Benfica Actif 116 / 135 40% 2 04.07.2027 -
Juan Giménez Celta Actif 113 / 144 40% 3 04.07.2027 -
Daniel Kelly Oxford United Actif 112 / 102 40% 5 02.07.2027 -
Riley Owen Trento Actif 100 / 94 40% 4 02.07.2027 -
Jofre Torrents Ajax Actif 129 / 124 40% 3 01.07.2027 -
Fuzy Taylor Medeama Actif 77 / 89 40% 2 01.07.2027 -
Sascha Britschgi Padova Actif 109 / 130 40% 1 01.07.2027 -
Joseph Nuhu Hasaacas Actif 77 / 84 40% 2 30.06.2027 -
Caleb Yirenkyi Coventry City Actif 130 / 150 40% 1 26.06.2027 -
David Atiemo Liberty Professionals Actif 82 / 90 40% 2 24.06.2027 -
Ernie Weaver AFC Wimbledon Actif 120 / 109 40% 1 24.06.2027 -
Joel McGregor Swindon Town Actif 83 / 84 40% 3 21.06.2027 -
Daniel Dennis Ikorodu City Actif 96 / 92 40% 1 18.06.2027 -
Ezra Mayers West Ham United Actif 116 / 119 40% 2 17.06.2027 -
Martim Cunha Porto Actif 93 / 108 40% 1 15.06.2027 -
Keagan Tau Ajax Cape Town Actif 85 / 103 40% 1 15.06.2027 -
Christos Mouzakitis Hull City Actif 137 / 153 40% 4 13.06.2027 -
Darryl Bakola Padova Actif 109 / 135 40% 1 13.06.2027 -
Issa Yusuf Shooting Stars Actif 83 / 101 40% 1 13.06.2027 -
Jan Bürger Gillingham Actif 111 / 132 40% 2 09.06.2027 -
Zane Albarus Cambridge United Actif 90 / 114 40% 1 09.06.2027 -
Keagan Phiri Platinum Stars Actif 98 / 119 40% 2 04.06.2027 -
Edwin Asamoah Berekum Chelsea Actif 82 / 95 40% 2 04.06.2027 -
Hlompho Lorch Ajax Cape Town Actif 93 / 92 40% 5 03.06.2027 -
Adam Bakoune Ospitaletto Actif 94 / 83 40% 3 30.05.2027 -
Finley McAllister Grimsby Town Actif 86 / 83 40% 1 28.05.2027 -
Josh Smith Accrington Stanley Actif 83 / 93 40% 1 26.05.2027 -
Kazunari Kita Real Sociedad Actif 103 / 91 40% 1 24.05.2027 -
Matvii Ponomarenko Dynamo Kyiv Actif 120 / 128 40% 1 19.04.2027 -
Víctor Guzmán Sporting CP Actif 107 / 83 40% 1 19.04.2027 -
Kutlwano Letlhaku Ajax Cape Town Actif 126 / 109 40% 1 06.04.2027 -
Zack Nelson Bromley Actif 101 / 93 40% 1 06.04.2027 -
Ethan Williams Peterborough United Actif 108 / 113 40% 2 29.03.2027 -
Rayan Bournemouth Actif 143 / 133 40% 1 29.03.2027 -
Calum Agius Crewe Alexandra Actif 96 / 112 40% 1 29.03.2027 -
Dom Ballard Leyton Orient Actif 115 / 134 40% 1 22.03.2027 -
Gustavo Ferreira Benfica Actif 83 / 81 40% 1 22.03.2027 -
Dramane Kamagaté USM Alger Actif 102 / 120 40% 1 22.03.2027 -
Thomas Waddingham Portsmouth Actif 111 / 114 40% 1 15.03.2027 -
Baylee Dipepa Norwich City Actif 96 / 110 40% 1 15.03.2027 -
Mateus Mané Manchester United Actif 144 / 152 40% 1 15.03.2027 -
Mpho Khethang AS Police Actif 83 / 98 40% 1 01.03.2027 -
Josh King Chelsea Actif 131 / 149 40% 2 22.02.2027 -
Lucas Bergvall Tottenham Actif 155 / 145 40% 1 22.02.2027 -
Khama Dolly Utrecht Actif 123 / 124 67% 1 14.02.2027 Approuver
Juan Bezerra BK Hacken Négociation 117 / 121 66% 1 14.02.2027 Approuver
Mohamed-Ali Cho Hull City Actif 144 / 139 40% 2 13.02.2027 -
Ilyas Ansah Hull City Actif 122 / 149 40% 1 13.02.2027 -
Kristoffer Lund Birmingham Actif 118 / 142 40% 1 13.02.2027 -
Florentino Luís Ipswich Town Actif 139 / 135 40% 2 10.02.2027 -
Isaiah Jones Luton Town Actif 120 / 127 40% 1 10.02.2027 -
Ali Ahmed Norwich City Actif 133 / 135 40% 1 10.02.2027 -
Mduduzi Shabalala Kaizer Chiefs Actif 108 / 98 40% 3 09.02.2027 -
Tom Fellows Southampton Actif 133 / 128 40% 2 09.02.2027 -
Xavier Amaechi Plymouth Argyle Actif 115 / 103 40% 1 09.02.2027 -
Jack McGlynn Stoke City Actif 135 / 147 40% 2 08.02.2027 -
Tyrese Campbell Sheffield United Actif 119 / 118 40% 2 07.02.2027 -
Tomáš Rigo Stoke City Actif 122 / 116 40% 1 07.02.2027 -
David Ozoh Derby County Actif 131 / 121 40% 1 07.02.2027 -
Cemran Dansin Orlando Pirates Actif 103 / 101 40% 3 05.02.2027 -
Max Bird Birmingham Actif 120 / 126 40% 3 05.02.2027 -
Kasey McAteer Ipswich Town Actif 128 / 123 40% 1 05.02.2027 -
Marcelo Allende Mamelodi Sundowns Actif 127 / 140 40% 6 04.02.2027 -
Tshepang Moremi Orlando Pirates Actif 105 / 125 40% 12 03.02.2027 -
Koki Saito Queens Park Rangers Actif 127 / 124 40% 1 03.02.2027 -
Tyler Goodrham Oxford United Actif 126 / 114 40% 1 01.02.2027 -
Jack Rudoni Coventry City Actif 127 / 134 40% 2 31.01.2027 -
Scott Twine Bristol City Actif 133 / 130 40% 1 30.01.2027 -
Derensili Sanches Fernandes Huddersfield Town Actif 117 / 130 40% 1 30.01.2027 -
Giorgi Chakvetadze Watford Actif 124 / 130 40% 1 29.01.2027 -
Kwame Poku Queens Park Rangers Actif 129 / 128 40% 1 29.01.2027 -
Isaac Price West Bromwich Albion Actif 125 / 135 40% 1 27.01.2027 -
Ronald Swansea City Actif 114 / 139 40% 1 27.01.2027 -
Rico Lewis Manchester City Actif 159 / 135 40% 1 27.01.2027 -
Cian Ashford Cardiff City Actif 105 / 103 40% 1 25.01.2027 -
Joe Gelhardt Hull City Actif 143 / 113 40% 1 25.01.2027 -
Callum Hudson-Odoi Nottingham Forest Actif 143 / 168 40% 1 23.01.2027 -
Kwadwo Baah Watford Actif 127 / 108 40% 1 23.01.2027 -
Suleiman Camara Slovan Bratislava Actif 111 / 128 40% 5 18.01.2027 -
Simphiwe Selepe Orlando Pirates Actif 106 / 134 40% 1 18.01.2027 -
Christian Krasnodar Actif 131 / 131 40% 8 16.01.2027 -
Bongani Modiba Black Aces Actif 105 / 124 40% 6 14.01.2027 -
Mandla Erasmus SuperSport United Actif 116 / 123 40% 5 13.01.2027 -
Arjan Malić Sturm Graz Actif 117 / 140 40% 1 13.01.2027 -
Ruben van Bommel Ferencvaros Actif 133 / 148 40% 4 03.01.2027 -
Nathan Ordaz Metalist Actif 99 / 127 40% 1 30.12.2026 -
Reda Khadra Qarabag Actif 128 / 126 40% 6 28.12.2026 -
Giacomo Raspadori Atalanta Actif 135 / 137 40% 1 28.12.2026 -
Max Conway Bolton Wanderers Actif 109 / 117 40% 2 20.12.2026 -
Angelo Gattermayer Wolfsberger AC Actif 135 / 106 40% 2 19.12.2026 -
Alan Lescano Argentinos Juniors Actif 126 / 134 40% 1 19.12.2026 -
Thalente Mbatha Orlando Pirates Actif 105 / 107 40% 2 16.12.2026 -
Ammar Ramadan DAC Dunajska Streda Actif 112 / 118 40% 2 15.12.2026 -
Joseph Wakaso Wa All Stars Actif 116 / 100 40% 2 14.12.2026 -
Isaac Kyereh Liberty Professionals Actif 116 / 100 40% 2 13.12.2026 -
Mbekezeli Mbokazi Chicago Fire Actif 125 / 126 40% 1 12.12.2026 -
Marvelous Freedom Ikorodu City Actif 97 / 86 40% 1 09.12.2026 -
Williams Manyama SuperSport United Actif 113 / 112 40% 1 06.12.2026 -
Joaquín Gho Argentinos Juniors Actif 124 / 130 40% 1 02.12.2026 -
Romano Schmid Frosinone Actif 129 / 149 40% 1 29.11.2026 -
Antonio Galeano Remo Stars Actif 123 / 123 40% 3 27.11.2026 -
Jack Currie Oxford United Actif 111 / 136 40% 3 26.11.2026 -
Siyanda Ndlovu Bloemfontein Celtic Actif 114 / 127 40% 4 25.11.2026 -
João Gomes Aston Villa Actif 141 / 129 40% 4 23.11.2026 -
Daniel Kyerewaa Reading Actif 111 / 111 40% 1 15.11.2026 -
Nicolás Fernández Mercau Shakhtar Actif 129 / 147 40% 2 12.11.2026 -
Philippe Ndinga Philadelphia Union Actif 121 / 130 40% 1 11.11.2026 -
Joel Ezra Enyimba Actif 95 / 100 40% 1 10.11.2026 -
Riqui Puig LA Galaxy Actif 129 / 138 40% 1 05.11.2026 -
Jofrank Istifanus Nasarawa United Actif 88 / 95 40% 1 04.11.2026 -
Conrad Wallem Austria Wien Actif 128 / 135 40% 1 29.10.2026 -
Iván Angulo Orlando City Actif 119 / 140 40% 2 24.10.2026 -
Caolan Boyd-Munce Wycombe Wanderers Actif 129 / 130 40% 1 24.10.2026 -
Mfundo Vilakazi Kaizer Chiefs Actif 96 / 100 40% 1 20.10.2026 -
Thabang Matuludi Polokwane City Actif 96 / 113 40% 1 19.10.2026 -
Facundo Mura Inter Miami CF Actif 120 / 138 40% 1 17.10.2026 -
Ola Brynhildsen Bodo/Glimt Actif 141 / 108 40% 1 13.10.2026 -
Bénie Traoré New York City Actif 125 / 125 40% 1 10.10.2026 -
Luca Connell Barnsley Actif 103 / 108 40% 1 10.10.2026 -
Tadeo Allende Inter Miami CF Actif 132 / 127 40% 2 09.10.2026 -
Griffin Yow New England Revolution Actif 123 / 122 40% 1 08.10.2026 -
Kelvin Yeboah Minnesota United FC Actif 121 / 113 40% 1 06.10.2026 -
Tom Atcheson Blackburn Rovers Actif 116 / 123 40% 1 11.09.2026 -
Olaniyi Saheed Kwara United Actif 92 / 95 40% 1 10.09.2026 -
Tyler Fletcher Manchester United Actif 101 / 104 40% 1 10.09.2026 -
Emmanuel Akpan Bendel Insurance Actif 85 / 81 40% 1 08.09.2026 -
Ainsley Maitland-Niles Everton Actif 133 / 158 40% 1 01.08.2026 -